Monterey Peninsula Airport
KMRY : now visible

Airfield :











YOU CAN JOIN US ON...

 
LOGIN :

Register | Disclaimer

   EN    FR    IT 

 









Legend :    VFR   Marginal VFR   IFR   Intensive IFR   Very Intensive IFR
Visi :
Ceiling :
>= 8 km
>= 3000ft
5 to 8 km
1000 to 3000 ft
1500m to 5 km
500 to 1000 ft
800 to 1500m
200 to 500 ft
< 800m
< 200 ft
Symbols :   Thunderstorms  Fog  Heavy snow  Heavy precipitations  Wind > 20 kt






- Airport Elevation : 257 ft
- IATA code : MRY


KMRY - Monterey Peninsula

CURRENT METAR :
  • 241754Z 35006KT 8SM CLR 20/10 A2988 RMK AO2 SLP129 T02000100 10211 20089 58002

EXPIRED METARs :
  • 241654Z 31003KT 6SM HZ CLR 19/10 A2988 RMK AO2 SLP128 T01940100
  • 241554Z 34005KT 7SM CLR 16/09 A2988 RMK AO2 SLP131 T01610094

TAF KMRY
Valid from the 24 at 18:00 until the 25 at 18:00 UTC


241720Z 2418/2518 VRB03KT P6SM SKC
FM242000 30009KT P6SM FEW200
FM250300 22006KT P6SM SKC
FM250900 VRB03KT P6SM SKC
FM251400 VRB02KT 6SM BR HZ SKC
KZOA FIR / North America



MET'MAP, your aeronautical weather chart ! - Copyright ORBIFLY December 2007 - Disclaimer

ORBIFLY MET'MAP TEAM :

Programming & Development : Alexandra Zaïnal
Original concept : Baudouin d'Aumeries
Technical & hardware support : Manuel Goepfert
Assistance : Marc-Olivier Méhu

Contact : metmap@orbifly.com




SOURCES & CREDITS :

   NOAA       Earth
Advisory